createdAt,value
2017-09-10T00:02:07.779Z,99.90
2017-09-10T00:04:36.067Z,99.90
2017-09-10T00:07:04.582Z,99.90
2017-09-10T00:09:32.075Z,99.90
2017-09-10T00:11:59.614Z,99.90
2017-09-10T00:14:27.107Z,99.90
2017-09-10T00:16:55.395Z,99.90
2017-09-10T00:19:23.661Z,99.90
2017-09-10T00:21:52.002Z,99.90
2017-09-10T00:24:19.517Z,99.90
2017-09-10T00:26:47.039Z,99.90
2017-09-10T00:29:14.561Z,99.90
2017-09-10T00:31:42.068Z,99.90
2017-09-10T00:34:10.351Z,99.90
2017-09-10T00:36:38.629Z,99.90
2017-09-10T00:39:06.945Z,99.90
2017-09-10T00:41:34.468Z,99.90
2017-09-10T00:44:02.760Z,99.90
2017-09-10T00:46:30.339Z,99.90
2017-09-10T00:48:57.872Z,99.90
2017-09-10T00:51:25.457Z,99.90
2017-09-10T00:53:52.970Z,99.90
2017-09-10T00:56:21.264Z,99.90
2017-09-10T00:58:49.534Z,99.90
2017-09-10T01:01:17.805Z,99.90
2017-09-10T01:03:46.107Z,99.90
2017-09-10T01:06:13.627Z,99.90
2017-09-10T01:08:41.143Z,99.90
2017-09-10T01:11:08.686Z,99.90
2017-09-10T01:13:36.206Z,99.90
2017-09-10T01:16:04.499Z,99.90
2017-09-10T01:18:32.803Z,99.90
2017-09-10T01:21:00.317Z,99.90
2017-09-10T01:23:27.839Z,99.90
2017-09-10T01:25:55.349Z,99.90
2017-09-10T01:28:23.663Z,99.90
2017-09-10T01:30:51.159Z,99.90
2017-09-10T01:33:18.659Z,99.90
2017-09-10T01:35:46.188Z,99.90
2017-09-10T01:38:14.469Z,99.90
2017-09-10T01:40:42.777Z,99.90
2017-09-10T01:43:10.342Z,99.90
2017-09-10T01:45:37.858Z,99.90
2017-09-10T01:48:06.162Z,99.90
2017-09-10T01:50:33.736Z,99.90
2017-09-10T01:53:01.281Z,99.90
2017-09-10T01:55:28.857Z,99.90
2017-09-10T01:57:56.375Z,99.90
2017-09-10T02:00:24.686Z,99.90
2017-09-10T02:02:52.249Z,99.90
2017-09-10T02:05:19.752Z,99.90
2017-09-10T02:07:47.292Z,99.90
2017-09-10T02:10:14.792Z,99.90
2017-09-10T02:12:43.079Z,99.90
2017-09-10T02:15:10.580Z,99.90
2017-09-10T02:17:38.102Z,99.90
2017-09-10T02:20:05.623Z,99.90
2017-09-10T02:22:33.149Z,99.90
2017-09-10T02:25:00.666Z,99.90
2017-09-10T02:27:28.983Z,99.90
2017-09-10T02:29:56.497Z,99.90
2017-09-10T02:32:24.802Z,99.90
2017-09-10T02:34:52.332Z,99.90
2017-09-10T02:37:20.610Z,99.90
2017-09-10T02:39:48.199Z,99.90
2017-09-10T02:42:15.704Z,99.90
2017-09-10T02:44:44.014Z,99.90
2017-09-10T02:47:11.516Z,99.90
2017-09-10T02:49:39.048Z,99.90
2017-09-10T02:52:06.565Z,99.90
2017-09-10T02:54:34.835Z,99.90
2017-09-10T02:57:03.128Z,99.90
2017-09-10T02:59:31.409Z,99.90
2017-09-10T03:01:58.951Z,99.90
2017-09-10T03:04:27.273Z,99.90
2017-09-10T03:06:54.794Z,99.90
2017-09-10T03:09:23.093Z,99.90
2017-09-10T03:11:50.679Z,99.90
2017-09-10T03:14:18.204Z,99.90
2017-09-10T03:16:45.712Z,99.90
2017-09-10T03:19:13.240Z,99.90
2017-09-10T03:21:40.788Z,99.90
2017-09-10T03:24:08.313Z,99.90
2017-09-10T03:26:36.632Z,99.90
2017-09-10T03:29:04.139Z,99.90
2017-09-10T03:31:31.660Z,99.90
2017-09-10T03:33:59.183Z,99.90
2017-09-10T03:36:27.514Z,99.90
2017-09-10T03:38:55.041Z,99.90
2017-09-10T03:41:22.566Z,99.90
2017-09-10T03:43:50.860Z,99.90
2017-09-10T03:46:18.379Z,99.90
2017-09-10T03:48:45.897Z,99.90
2017-09-10T03:51:13.439Z,99.90
2017-09-10T03:53:41.013Z,99.90
2017-09-10T03:56:08.536Z,99.90
2017-09-10T03:58:36.822Z,99.90
2017-09-10T04:01:05.121Z,99.90
2017-09-10T04:03:32.638Z,99.90
2017-09-10T04:06:00.155Z,99.90
2017-09-10T04:08:27.669Z,99.90
2017-09-10T04:10:55.963Z,99.90
2017-09-10T04:13:23.493Z,99.90
2017-09-10T04:15:51.806Z,99.90
2017-09-10T04:18:19.326Z,99.90
2017-09-10T04:20:47.594Z,99.90
2017-09-10T04:23:15.902Z,99.90
2017-09-10T04:25:43.403Z,99.90
2017-09-10T04:28:10.932Z,99.90
2017-09-10T04:30:38.432Z,99.90
2017-09-10T04:33:05.950Z,99.90
2017-09-10T04:35:33.490Z,99.90
2017-09-10T04:38:01.009Z,99.90
2017-09-10T04:40:28.553Z,99.90
2017-09-10T04:42:56.052Z,99.90
2017-09-10T04:45:24.337Z,99.90
2017-09-10T04:47:51.859Z,99.90
2017-09-10T04:50:19.378Z,99.90
2017-09-10T04:52:46.895Z,99.90
2017-09-10T04:55:15.174Z,99.90
2017-09-10T04:57:43.468Z,99.90
2017-09-10T05:00:10.968Z,99.90
2017-09-10T05:02:38.503Z,99.90
2017-09-10T05:05:06.021Z,99.90
2017-09-10T05:07:34.315Z,99.90
2017-09-10T05:10:02.619Z,99.90
2017-09-10T05:12:30.134Z,99.90
2017-09-10T05:14:58.442Z,99.90
2017-09-10T05:17:26.016Z,99.90
2017-09-10T05:19:53.543Z,99.90
2017-09-10T05:22:21.830Z,99.90
2017-09-10T05:24:49.402Z,99.90
2017-09-10T05:27:16.919Z,99.90
2017-09-10T05:29:45.198Z,99.90
2017-09-10T05:32:13.503Z,99.90
2017-09-10T05:34:40.999Z,99.90
2017-09-10T05:37:08.530Z,99.90
2017-09-10T05:39:36.056Z,99.90
2017-09-10T05:42:04.344Z,99.90
2017-09-10T05:44:31.894Z,99.90
2017-09-10T05:47:00.183Z,99.90
2017-09-10T05:49:27.701Z,99.90
2017-09-10T05:51:55.241Z,99.90
2017-09-10T05:54:22.778Z,99.90
2017-09-10T05:56:50.322Z,99.90
2017-09-10T05:59:17.829Z,99.90
2017-09-10T06:01:45.366Z,99.90
2017-09-10T06:04:12.885Z,99.90
2017-09-10T06:06:41.187Z,99.90
2017-09-10T06:09:08.706Z,99.90
2017-09-10T06:11:36.976Z,99.90
2017-09-10T06:14:05.290Z,99.90
2017-09-10T06:16:32.798Z,99.90
2017-09-10T06:19:00.355Z,99.90
2017-09-10T06:21:27.878Z,99.90
2017-09-10T06:23:55.409Z,99.90
2017-09-10T06:26:23.709Z,99.90
2017-09-10T06:28:51.315Z,99.90
2017-09-10T06:31:18.862Z,99.90
2017-09-10T06:33:46.377Z,99.90
2017-09-10T06:36:13.884Z,99.30
2017-09-10T06:38:41.420Z,97.80
2017-09-10T06:41:08.933Z,96.00
2017-09-10T06:43:37.232Z,92.60
2017-09-10T06:46:04.749Z,92.60
2017-09-10T06:48:32.267Z,92.30
2017-09-10T06:50:59.787Z,91.70
2017-09-10T06:53:28.051Z,89.40
2017-09-10T06:55:56.344Z,90.90
2017-09-10T06:58:24.626Z,86.60
2017-09-10T07:00:52.178Z,86.50
2017-09-10T07:03:20.478Z,82.00
2017-09-10T07:05:48.002Z,82.00
2017-09-10T07:08:16.291Z,83.60
2017-09-10T07:10:43.792Z,83.50
2017-09-10T07:13:11.325Z,82.50
2017-09-10T07:15:38.837Z,83.90
2017-09-10T07:18:06.377Z,85.10
2017-09-10T07:20:33.875Z,87.00
2017-09-10T07:23:02.160Z,81.90
2017-09-10T07:25:29.684Z,81.90
2017-09-10T07:27:57.199Z,81.10
2017-09-10T07:30:24.740Z,79.70
2017-09-10T07:32:52.288Z,80.60
2017-09-10T07:35:20.575Z,76.20
2017-09-10T07:37:48.113Z,76.20
2017-09-10T07:40:16.402Z,73.00
2017-09-10T07:42:44.698Z,71.40
2017-09-10T07:45:12.206Z,71.30
2017-09-10T07:47:39.746Z,71.20
2017-09-10T07:50:07.263Z,69.10
2017-09-10T07:52:34.835Z,65.80
2017-09-10T07:55:02.378Z,66.50
2017-09-10T07:57:29.919Z,63.70
2017-09-10T07:59:58.185Z,63.90
2017-09-10T08:02:26.466Z,63.00
2017-09-10T08:04:54.753Z,62.70
2017-09-10T08:07:23.024Z,63.30
2017-09-10T08:09:51.308Z,59.60
2017-09-10T08:12:19.576Z,59.70
2017-09-10T08:14:47.987Z,59.80
2017-09-10T08:17:15.502Z,59.80
2017-09-10T08:19:43.810Z,59.80
2017-09-10T08:22:11.383Z,59.80
2017-09-10T08:24:38.876Z,58.90
2017-09-10T08:27:06.502Z,59.70
2017-09-10T08:29:34.000Z,59.00
2017-09-10T08:32:01.534Z,57.90
2017-09-10T08:34:29.032Z,58.00
2017-09-10T08:36:57.320Z,56.10
2017-09-10T08:39:25.602Z,57.50
2017-09-10T08:41:53.903Z,56.40
2017-09-10T08:44:21.414Z,56.40
2017-09-10T08:46:48.954Z,56.20
2017-09-10T08:49:16.461Z,55.80
2017-09-10T08:51:44.002Z,55.10
2017-09-10T08:54:11.499Z,54.30
2017-09-10T08:56:39.332Z,49.10
2017-09-10T08:59:06.846Z,50.70
2017-09-10T09:01:34.384Z,51.90
2017-09-10T09:04:01.909Z,51.60
2017-09-10T09:06:30.176Z,47.20
2017-09-10T09:08:58.474Z,46.20
2017-09-10T09:11:25.994Z,46.10
2017-09-10T09:13:53.512Z,46.60
2017-09-10T09:16:21.063Z,47.40
2017-09-10T09:18:48.587Z,47.60
2017-09-10T09:21:16.866Z,45.40
2017-09-10T09:23:45.175Z,45.90
2017-09-10T09:26:12.671Z,46.40
2017-09-10T09:28:40.196Z,47.40
2017-09-10T09:31:07.702Z,44.90
2017-09-10T09:33:35.993Z,45.20
2017-09-10T09:36:04.286Z,44.40
2017-09-10T09:38:31.830Z,44.30
2017-09-10T09:41:00.088Z,45.20
2017-09-10T09:43:28.372Z,47.10
2017-09-10T09:45:56.682Z,47.00
2017-09-10T09:48:24.184Z,47.00
2017-09-10T09:50:51.700Z,46.60
2017-09-10T09:53:19.214Z,47.10
2017-09-10T09:55:47.130Z,45.40
2017-09-10T09:58:14.639Z,45.80
2017-09-10T10:00:42.168Z,43.80
2017-09-10T10:03:09.835Z,43.60
2017-09-10T10:05:37.351Z,43.90
2017-09-10T10:08:04.840Z,44.10
2017-09-10T10:10:32.818Z,44.10
2017-09-10T10:13:00.355Z,41.80
2017-09-10T10:15:27.860Z,41.40
2017-09-10T10:17:55.388Z,41.20
2017-09-10T10:20:22.899Z,41.70
2017-09-10T10:22:50.419Z,42.10
2017-09-10T10:25:17.940Z,42.40
2017-09-10T10:27:45.440Z,37.50
2017-09-10T10:30:12.981Z,36.20
2017-09-10T10:32:40.494Z,36.70
2017-09-10T10:35:08.752Z,38.20
2017-09-10T10:37:36.302Z,38.30
2017-09-10T10:40:04.567Z,38.30
2017-09-10T10:42:32.114Z,38.30
2017-09-10T10:44:59.607Z,36.90
2017-09-10T10:47:27.863Z,39.60
2017-09-10T10:49:55.395Z,39.50
2017-09-10T10:52:22.896Z,39.60
2017-09-10T10:54:51.192Z,34.90
2017-09-10T10:57:18.708Z,34.80
2017-09-10T10:59:46.254Z,35.30
2017-09-10T11:02:13.774Z,34.60
2017-09-10T11:04:41.281Z,32.40
2017-09-10T11:07:08.826Z,34.20
2017-09-10T11:09:36.394Z,35.20
2017-09-10T11:12:03.888Z,35.60
2017-09-10T11:14:32.196Z,40.10
2017-09-10T11:16:59.716Z,40.00
2017-09-10T11:19:27.994Z,39.20
2017-09-10T11:21:56.294Z,41.60
2017-09-10T11:24:23.819Z,41.50
2017-09-10T11:26:52.131Z,45.00
2017-09-10T11:29:19.659Z,44.90
2017-09-10T11:31:47.947Z,38.20
2017-09-10T11:34:16.254Z,33.70
2017-09-10T11:36:43.913Z,33.50
2017-09-10T11:39:12.255Z,29.60
2017-09-10T11:41:40.578Z,26.70
2017-09-10T11:44:08.104Z,26.60
2017-09-10T11:46:36.364Z,26.30
2017-09-10T11:49:04.669Z,25.50
2017-09-10T11:51:32.168Z,25.50
2017-09-10T11:53:59.718Z,24.60
2017-09-10T11:56:27.212Z,26.60
2017-09-10T11:58:54.712Z,25.80
2017-09-10T12:01:22.247Z,26.70
2017-09-10T12:03:50.512Z,31.70
2017-09-10T12:06:18.803Z,28.50
2017-09-10T12:08:46.310Z,28.50
2017-09-10T12:11:13.806Z,26.60
2017-09-10T12:13:42.106Z,24.50
2017-09-10T12:16:09.599Z,24.50
2017-09-10T12:18:37.124Z,26.10
2017-09-10T12:21:04.634Z,23.70
2017-09-10T12:23:32.141Z,22.80
2017-09-10T12:25:59.678Z,23.60
2017-09-10T12:28:27.948Z,24.30
2017-09-10T12:30:56.240Z,26.90
2017-09-10T12:33:23.763Z,26.90
2017-09-10T12:35:51.285Z,24.70
2017-09-10T12:38:18.831Z,23.70
2017-09-10T12:40:46.328Z,26.00
2017-09-10T12:43:13.955Z,28.50
2017-09-10T12:45:41.471Z,26.20
2017-09-10T12:48:09.775Z,22.10
2017-09-10T12:50:37.278Z,22.00
2017-09-10T12:53:04.818Z,24.70
2017-09-10T12:55:32.311Z,25.30
2017-09-10T12:57:59.827Z,24.10
2017-09-10T13:00:27.361Z,25.30
2017-09-10T13:02:54.855Z,25.10
2017-09-10T13:05:22.384Z,21.70
2017-09-10T13:07:49.888Z,21.80
2017-09-10T13:10:17.398Z,23.50
2017-09-10T13:12:44.932Z,24.00
2017-09-10T13:15:13.214Z,23.90
2017-09-10T13:17:41.510Z,23.80
2017-09-10T13:20:09.013Z,23.80
2017-09-10T13:22:36.548Z,24.70
2017-09-10T13:25:04.061Z,22.90
2017-09-10T13:27:32.331Z,23.60
2017-09-10T13:30:00.621Z,23.40
2017-09-10T13:32:28.134Z,23.30
2017-09-10T13:34:55.652Z,22.70
2017-09-10T13:37:23.166Z,23.20
2017-09-10T13:39:50.707Z,26.00
2017-09-10T13:42:18.226Z,25.60
2017-09-10T13:44:45.719Z,25.20
2017-09-10T13:47:13.240Z,24.90
2017-09-10T13:49:40.736Z,25.10
2017-09-10T13:52:08.265Z,25.10
2017-09-10T13:54:35.830Z,25.20
2017-09-10T13:57:03.355Z,25.00
2017-09-10T13:59:31.663Z,24.00
2017-09-10T14:01:59.182Z,24.00
2017-09-10T14:04:27.469Z,24.30
2017-09-10T14:06:55.728Z,25.80
2017-09-10T14:09:23.247Z,25.80
2017-09-10T14:11:50.753Z,26.60
2017-09-10T14:14:19.170Z,26.60
2017-09-10T14:16:46.669Z,26.50
2017-09-10T14:19:14.204Z,26.70
2017-09-10T14:21:41.700Z,26.80
2017-09-10T14:24:09.974Z,27.60
2017-09-10T14:26:38.281Z,27.40
2017-09-10T14:29:05.794Z,27.10
2017-09-10T14:31:34.090Z,28.00
2017-09-10T14:34:02.363Z,26.90
2017-09-10T14:36:30.628Z,27.40
2017-09-10T14:38:58.139Z,27.30
2017-09-10T14:41:25.698Z,28.10
2017-09-10T14:43:53.218Z,29.40
2017-09-10T14:46:21.495Z,34.30
2017-09-10T14:48:49.770Z,32.40
2017-09-10T14:51:18.075Z,32.80
2017-09-10T14:53:45.610Z,32.80
2017-09-10T14:56:13.904Z,34.50
2017-09-10T14:58:41.399Z,34.50
2017-09-10T15:01:08.936Z,38.30
2017-09-10T15:03:36.470Z,36.80
2017-09-10T15:06:04.750Z,34.20
2017-09-10T15:08:32.299Z,34.20
2017-09-10T15:11:00.564Z,33.10
2017-09-10T15:13:28.844Z,34.20
2017-09-10T15:15:57.147Z,36.40
2017-09-10T15:18:24.664Z,36.30
2017-09-10T15:20:52.276Z,38.40
2017-09-10T15:23:19.799Z,41.00
2017-09-10T15:25:48.080Z,43.80
2017-09-10T15:28:16.359Z,42.30
2017-09-10T15:30:44.638Z,43.10
2017-09-10T15:33:12.942Z,42.70
2017-09-10T15:35:40.460Z,42.10
2017-09-10T15:38:07.976Z,45.30
2017-09-10T15:40:35.502Z,46.30
2017-09-10T15:43:03.026Z,48.10
2017-09-10T15:45:30.553Z,49.80
2017-09-10T15:47:58.048Z,50.70
2017-09-10T15:50:26.307Z,52.70
2017-09-10T15:52:53.926Z,52.60
2017-09-10T15:55:21.446Z,53.90
2017-09-10T15:57:49.771Z,55.60
2017-09-10T16:00:17.290Z,55.60
2017-09-10T16:02:45.569Z,53.90
2017-09-10T16:05:13.863Z,53.70
2017-09-10T16:07:41.373Z,53.70
2017-09-10T16:10:08.927Z,54.60
2017-09-10T16:12:36.440Z,55.00
2017-09-10T16:15:04.110Z,55.20
2017-09-10T16:17:31.874Z,55.00
2017-09-10T16:19:59.457Z,55.80
2017-09-10T16:22:28.032Z,56.40
2017-09-10T16:24:55.550Z,56.50
2017-09-10T16:27:24.017Z,54.80
2017-09-10T16:29:52.318Z,56.10
2017-09-10T16:32:19.924Z,56.10
2017-09-10T16:34:47.448Z,56.90
2017-09-10T16:37:14.952Z,57.40
2017-09-10T16:39:43.239Z,58.50
2017-09-10T16:42:10.740Z,58.50
2017-09-10T16:44:38.255Z,59.90
2017-09-10T16:47:06.534Z,62.40
2017-09-10T16:49:34.950Z,62.00
2017-09-10T16:52:03.394Z,60.20
2017-09-10T16:54:31.678Z,60.80
2017-09-10T16:56:59.973Z,62.60
2017-09-10T16:59:27.485Z,62.60
2017-09-10T17:01:55.012Z,65.10
2017-09-10T17:04:23.326Z,70.40
2017-09-10T17:06:50.820Z,70.20
2017-09-10T17:09:18.350Z,71.70
2017-09-10T17:11:45.858Z,72.40
2017-09-10T17:14:13.398Z,74.30
2017-09-10T17:16:41.659Z,75.50
2017-09-10T17:19:09.164Z,75.60
2017-09-10T17:21:37.452Z,76.60
2017-09-10T17:24:04.970Z,76.60
2017-09-10T17:26:32.501Z,77.80
2017-09-10T17:29:00.009Z,78.40
2017-09-10T17:31:28.300Z,78.40
2017-09-10T17:33:55.814Z,78.40
2017-09-10T17:36:23.330Z,78.40
2017-09-10T17:38:50.862Z,78.00
2017-09-10T17:41:19.143Z,78.50
2017-09-10T17:43:47.441Z,79.10
2017-09-10T17:46:14.960Z,79.00
2017-09-10T17:48:43.228Z,79.60
2017-09-10T17:51:11.538Z,80.00
2017-09-10T17:53:39.066Z,80.00
2017-09-10T17:56:06.584Z,80.10
2017-09-10T17:58:34.092Z,80.40
2017-09-10T18:01:01.639Z,80.90
2017-09-10T18:03:29.158Z,81.50
2017-09-10T18:05:56.680Z,82.20
2017-09-10T18:08:24.945Z,83.30
2017-09-10T18:10:52.461Z,83.30
2017-09-10T18:13:20.766Z,84.40
2017-09-10T18:15:48.267Z,84.30
2017-09-10T18:18:15.803Z,84.80
2017-09-10T18:20:43.300Z,85.50
2017-09-10T18:23:11.581Z,85.90
2017-09-10T18:25:39.908Z,86.40
2017-09-10T18:28:07.400Z,86.30
2017-09-10T18:30:35.027Z,86.50
2017-09-10T18:33:02.542Z,87.10
2017-09-10T18:35:30.803Z,88.30
2017-09-10T18:37:59.102Z,87.10
2017-09-10T18:40:27.377Z,88.50
2017-09-10T18:42:55.682Z,88.90
2017-09-10T18:45:23.189Z,88.80
2017-09-10T18:47:50.711Z,89.40
2017-09-10T18:50:18.264Z,90.20
2017-09-10T18:52:45.784Z,90.40
2017-09-10T18:55:14.110Z,91.20
2017-09-10T18:57:41.626Z,91.10
2017-09-10T19:00:09.911Z,91.70
2017-09-10T19:02:37.442Z,91.70
2017-09-10T19:05:04.935Z,92.00
2017-09-10T19:07:32.478Z,92.20
2017-09-10T19:10:00.765Z,92.50
2017-09-10T19:12:28.284Z,92.50
2017-09-10T19:14:55.824Z,92.60
2017-09-10T19:17:23.343Z,92.90
2017-09-10T19:19:50.886Z,93.10
2017-09-10T19:22:19.171Z,93.40
2017-09-10T19:24:47.445Z,93.60
2017-09-10T19:27:15.729Z,93.90
2017-09-10T19:29:43.228Z,93.90
2017-09-10T19:32:10.755Z,93.90
2017-09-10T19:34:38.282Z,94.00
2017-09-10T19:37:06.548Z,94.60
2017-09-10T19:39:34.840Z,95.00
2017-09-10T19:42:03.123Z,94.90
2017-09-10T19:44:31.424Z,95.10
2017-09-10T19:46:58.923Z,95.10
2017-09-10T19:49:26.447Z,95.30
2017-09-10T19:51:53.980Z,95.80
2017-09-10T19:54:21.489Z,95.50
2017-09-10T19:56:48.995Z,95.70
2017-09-10T19:59:17.314Z,95.60
2017-09-10T20:01:44.808Z,95.60
2017-09-10T20:04:13.068Z,95.60
2017-09-10T20:06:40.629Z,95.50
2017-09-10T20:09:08.159Z,95.60
2017-09-10T20:11:35.699Z,95.80
2017-09-10T20:14:03.218Z,96.00
2017-09-10T20:16:31.510Z,96.00
2017-09-10T20:18:59.822Z,96.20
2017-09-10T20:21:27.315Z,96.20
2017-09-10T20:23:54.847Z,96.10
2017-09-10T20:26:22.353Z,96.10
2017-09-10T20:28:50.620Z,96.00
2017-09-10T20:31:18.940Z,96.10
2017-09-10T20:33:46.434Z,96.00
2017-09-10T20:36:13.944Z,96.10
2017-09-10T20:38:41.483Z,95.70
2017-09-10T20:41:09.753Z,95.60
2017-09-10T20:43:38.124Z,95.50
2017-09-10T20:46:06.411Z,95.60
2017-09-10T20:48:34.669Z,95.30
2017-09-10T20:51:02.285Z,95.30
2017-09-10T20:53:29.783Z,95.40
2017-09-10T20:55:57.304Z,95.40
2017-09-10T20:58:24.799Z,95.50
2017-09-10T21:00:52.359Z,95.60
2017-09-10T21:03:19.876Z,95.60
2017-09-10T21:05:47.379Z,95.60
2017-09-10T21:08:14.918Z,95.20
2017-09-10T21:10:42.414Z,95.20
2017-09-10T21:13:10.710Z,94.80
2017-09-10T21:15:38.221Z,94.80
2017-09-10T21:18:05.728Z,94.70
2017-09-10T21:20:34.108Z,94.70
2017-09-10T21:23:01.604Z,94.20
2017-09-10T21:25:29.104Z,93.40
2017-09-10T21:27:57.409Z,92.10
2017-09-10T21:30:24.926Z,92.00
2017-09-10T21:32:53.184Z,90.70
2017-09-10T21:35:20.718Z,90.60
2017-09-10T21:37:48.229Z,90.50
2017-09-10T21:40:16.514Z,88.50
2017-09-10T21:42:44.058Z,88.50
2017-09-10T21:45:12.319Z,86.60
2017-09-10T21:47:40.650Z,86.00
2017-09-10T21:50:08.168Z,86.10
2017-09-10T21:52:36.436Z,87.00
2017-09-10T21:55:04.043Z,86.90
2017-09-10T21:57:31.534Z,87.60
2017-09-10T21:59:59.838Z,87.20
2017-09-10T22:02:27.349Z,87.20
2017-09-10T22:04:54.855Z,86.70
2017-09-10T22:07:23.140Z,86.90
2017-09-10T22:09:51.405Z,87.00
2017-09-10T22:12:19.714Z,87.90
2017-09-10T22:14:47.215Z,87.80
2017-09-10T22:17:14.758Z,88.20
2017-09-10T22:19:42.275Z,87.70
2017-09-10T22:22:09.802Z,88.20
2017-09-10T22:24:37.333Z,87.70
2017-09-10T22:27:04.850Z,88.00
2017-09-10T22:29:32.373Z,87.60
2017-09-10T22:31:59.871Z,87.60
2017-09-10T22:34:27.387Z,87.40
2017-09-10T22:36:54.908Z,87.60
2017-09-10T22:39:22.418Z,87.10
2017-09-10T22:41:50.730Z,87.90
2017-09-10T22:44:18.242Z,87.90
2017-09-10T22:46:45.767Z,87.70
2017-09-10T22:49:13.297Z,87.40
2017-09-10T22:51:40.809Z,86.90
2017-09-10T22:54:08.329Z,87.10
2017-09-10T22:56:35.853Z,86.70
2017-09-10T22:59:04.115Z,86.50
2017-09-10T23:01:33.162Z,87.30
2017-09-10T23:04:00.655Z,87.20
2017-09-10T23:06:28.207Z,87.20
2017-09-10T23:08:55.726Z,87.40
2017-09-10T23:11:23.242Z,87.10
2017-09-10T23:13:50.768Z,87.10
2017-09-10T23:16:18.290Z,87.40
2017-09-10T23:18:45.787Z,88.20
2017-09-10T23:21:13.330Z,88.50
2017-09-10T23:23:40.883Z,88.80
2017-09-10T23:26:08.379Z,89.30
2017-09-10T23:28:36.675Z,88.50
2017-09-10T23:31:04.949Z,90.00
2017-09-10T23:33:33.272Z,90.20
2017-09-10T23:36:00.790Z,90.20
2017-09-10T23:38:29.057Z,90.30
2017-09-10T23:40:56.572Z,90.30
2017-09-10T23:43:24.121Z,90.20
2017-09-10T23:45:51.620Z,90.20
2017-09-10T23:48:19.162Z,90.00
2017-09-10T23:50:46.668Z,89.90
2017-09-10T23:53:14.967Z,90.10
2017-09-10T23:55:42.531Z,90.10
2017-09-10T23:58:10.031Z,90.30
